createdAt,value
2023-01-02T00:00:57.812Z,4.67
2023-01-02T00:03:24.317Z,5.27
2023-01-02T00:05:50.763Z,5.37
2023-01-02T00:08:18.838Z,5.10
2023-01-02T00:10:45.323Z,4.90
2023-01-02T00:13:12.106Z,5.80
2023-01-02T00:15:38.799Z,4.10
2023-01-02T00:18:05.760Z,4.43
2023-01-02T00:20:33.069Z,4.57
2023-01-02T00:22:59.688Z,5.23
2023-01-02T00:25:26.077Z,4.80
2023-01-02T00:27:52.471Z,4.70
2023-01-02T00:30:18.889Z,4.60
2023-01-02T00:32:45.345Z,5.03
2023-01-02T00:35:11.752Z,5.00
2023-01-02T00:37:38.294Z,4.57
2023-01-02T00:40:05.344Z,4.60
2023-01-02T00:42:31.761Z,4.70
2023-01-02T00:44:58.218Z,4.50
2023-01-02T00:47:24.785Z,4.70
2023-01-02T00:49:51.225Z,4.20
2023-01-02T00:52:17.683Z,4.33
2023-01-02T00:54:44.073Z,4.20
2023-01-02T00:57:10.519Z,4.30
2023-01-02T00:59:36.944Z,4.40
2023-01-02T01:02:03.483Z,4.10
2023-01-02T01:04:33.290Z,4.23
2023-01-02T01:06:59.771Z,4.93
2023-01-02T01:09:26.207Z,4.10
2023-01-02T01:11:52.716Z,4.80
2023-01-02T01:14:19.183Z,4.27
2023-01-02T01:16:45.709Z,4.47
2023-01-02T01:19:12.364Z,4.93
2023-01-02T01:21:38.755Z,4.80
2023-01-02T01:24:05.457Z,4.80
2023-01-02T01:26:31.853Z,4.70
2023-01-02T01:28:58.377Z,5.50
2023-01-02T01:31:25.164Z,4.97
2023-01-02T01:33:51.607Z,4.07
2023-01-02T01:36:26.665Z,4.10
2023-01-02T01:38:53.146Z,3.87
2023-01-02T01:41:22.003Z,4.60
2023-01-02T01:43:51.157Z,4.77
2023-01-02T01:46:37.034Z,4.77
2023-01-02T01:49:14.167Z,5.50
2023-01-02T01:51:51.837Z,6.73
2023-01-02T01:54:23.489Z,5.47
2023-01-02T01:56:57.024Z,4.87
2023-01-02T01:59:23.975Z,4.90
2023-01-02T02:01:51.453Z,4.73
2023-01-02T02:04:21.894Z,4.70
2023-01-02T02:06:50.932Z,3.87
2023-01-02T02:09:22.828Z,4.93
2023-01-02T02:11:49.669Z,4.40
2023-01-02T02:14:16.195Z,4.27
2023-01-02T02:17:01.012Z,4.10
2023-01-02T02:19:45.873Z,3.90
2023-01-02T02:22:37.208Z,4.00
2023-01-02T02:25:28.536Z,3.83
2023-01-02T02:28:45.004Z,4.17
2023-01-02T02:31:25.827Z,3.30
2023-01-02T02:34:20.344Z,4.27
2023-01-02T02:36:58.442Z,4.40
2023-01-02T02:39:30.805Z,3.30
2023-01-02T02:42:19.148Z,3.70
2023-01-02T02:44:58.772Z,4.37
2023-01-02T02:47:49.309Z,3.50
2023-01-02T02:50:42.906Z,4.30
2023-01-02T02:53:22.390Z,3.93
2023-01-02T02:55:53.559Z,3.23
2023-01-02T02:58:21.499Z,4.23
2023-01-02T03:00:48.127Z,4.00
2023-01-02T03:03:23.663Z,3.27
2023-01-02T03:06:14.747Z,3.60
2023-01-02T03:09:21.968Z,3.33
2023-01-02T03:12:04.092Z,3.60
2023-01-02T03:14:39.958Z,4.03
2023-01-02T03:17:19.812Z,3.60
2023-01-02T03:19:52.573Z,3.87
2023-01-02T03:22:21.983Z,3.80
2023-01-02T03:24:52.220Z,3.33
2023-01-02T03:27:23.912Z,3.67
2023-01-02T03:29:56.351Z,4.17
2023-01-02T03:32:28.741Z,3.83
2023-01-02T03:34:55.863Z,3.40
2023-01-02T03:37:29.856Z,3.93
2023-01-02T03:40:00.854Z,3.60
2023-01-02T03:42:35.851Z,3.30
2023-01-02T03:45:05.234Z,3.87
2023-01-02T03:47:59.396Z,3.80
2023-01-02T03:50:45.051Z,4.13
2023-01-02T03:53:11.675Z,4.23
2023-01-02T03:55:39.998Z,3.60
2023-01-02T03:58:23.376Z,3.50
2023-01-02T04:01:04.496Z,4.43
2023-01-02T04:03:39.291Z,3.63
2023-01-02T04:06:14.335Z,3.87
2023-01-02T04:08:46.749Z,3.97
2023-01-02T04:11:17.995Z,4.10
2023-01-02T04:13:49.307Z,3.83
2023-01-02T04:16:23.380Z,4.43
2023-01-02T04:19:02.316Z,3.60
2023-01-02T04:21:33.453Z,3.20
2023-01-02T04:24:05.845Z,3.37
2023-01-02T04:26:40.982Z,3.83
2023-01-02T04:29:07.404Z,3.50
2023-01-02T04:31:41.207Z,3.90
2023-01-02T04:34:11.502Z,3.30
2023-01-02T04:36:39.650Z,3.20
2023-01-02T04:39:06.925Z,3.20
2023-01-02T04:41:34.105Z,3.20
2023-01-02T04:44:01.125Z,2.93
2023-01-02T04:46:29.213Z,3.10
2023-01-02T04:48:56.524Z,3.33
2023-01-02T04:51:23.722Z,3.33
2023-01-02T04:53:51.235Z,4.20
2023-01-02T04:56:18.244Z,3.90
2023-01-02T04:58:45.914Z,3.57
2023-01-02T05:01:14.992Z,4.20
2023-01-02T05:03:43.418Z,3.60
2023-01-02T05:06:10.300Z,4.40
2023-01-02T05:08:38.060Z,3.33
2023-01-02T05:11:11.313Z,3.70
2023-01-02T05:13:37.782Z,4.93
2023-01-02T05:16:04.842Z,3.50
2023-01-02T05:18:31.995Z,3.90
2023-01-02T05:21:28.982Z,3.20
2023-01-02T05:23:56.511Z,3.60
2023-01-02T05:26:22.989Z,3.50
2023-01-02T05:28:52.467Z,4.13
2023-01-02T05:31:19.125Z,3.37
2023-01-02T05:33:45.573Z,3.00
2023-01-02T05:36:11.968Z,3.40
2023-01-02T05:38:39.778Z,2.90
2023-01-02T05:41:07.814Z,3.03
2023-01-02T05:43:36.701Z,3.77
2023-01-02T05:46:11.909Z,3.80
2023-01-02T05:48:39.155Z,4.17
2023-01-02T05:51:06.957Z,3.90
2023-01-02T05:53:33.813Z,3.20
2023-01-02T05:56:08.576Z,3.50
2023-01-02T05:58:36.580Z,3.13
2023-01-02T06:01:08.880Z,4.23
2023-01-02T06:03:35.990Z,4.27
2023-01-02T06:06:07.419Z,4.90
2023-01-02T06:08:34.526Z,4.67
2023-01-02T06:11:01.976Z,4.60
2023-01-02T06:13:30.069Z,4.97
2023-01-02T06:15:57.628Z,5.07
2023-01-02T06:18:24.736Z,4.03
2023-01-02T06:20:51.280Z,3.43
2023-01-02T06:23:17.965Z,3.60
2023-01-02T06:25:44.483Z,5.43
2023-01-02T06:28:10.869Z,4.03
2023-01-02T06:30:37.301Z,4.40
2023-01-02T06:33:03.960Z,4.27
2023-01-02T06:35:30.386Z,4.20
2023-01-02T06:37:56.781Z,4.60
2023-01-02T06:40:23.180Z,4.70
2023-01-02T06:42:49.565Z,5.00
2023-01-02T06:45:16.157Z,4.87
2023-01-02T06:47:42.571Z,4.80
2023-01-02T06:50:09.493Z,5.20
2023-01-02T06:52:35.967Z,4.53
2023-01-02T06:55:02.329Z,5.63
2023-01-02T06:57:30.716Z,4.57
2023-01-02T06:59:57.229Z,4.93
2023-01-02T07:02:23.738Z,4.07
2023-01-02T07:04:50.214Z,4.57
2023-01-02T07:07:16.642Z,4.83
2023-01-02T07:09:43.042Z,5.27
2023-01-02T07:12:09.450Z,4.93
2023-01-02T07:14:35.827Z,3.83
2023-01-02T07:17:02.184Z,4.33
2023-01-02T07:19:28.593Z,4.80
2023-01-02T07:21:55.008Z,4.90
2023-01-02T07:24:21.452Z,5.20
2023-01-02T07:26:47.822Z,5.73
2023-01-02T07:29:14.332Z,6.43
2023-01-02T07:31:40.763Z,6.37
2023-01-02T07:34:07.204Z,5.60
2023-01-02T07:36:33.647Z,5.23
2023-01-02T07:39:00.008Z,4.90
2023-01-02T07:41:26.775Z,3.93
2023-01-02T07:43:55.297Z,3.60
2023-01-02T07:46:22.216Z,3.80
2023-01-02T07:48:50.247Z,3.50
2023-01-02T07:51:21.181Z,3.27
2023-01-02T07:53:52.926Z,3.17
2023-01-02T07:56:19.300Z,3.37
2023-01-02T07:58:45.696Z,3.83
2023-01-02T08:01:13.208Z,3.20
2023-01-02T08:03:40.051Z,3.57
2023-01-02T08:06:09.064Z,4.30
2023-01-02T08:08:36.730Z,3.37
2023-01-02T08:11:07.500Z,2.70
2023-01-02T08:13:34.370Z,3.57
2023-01-02T08:16:09.985Z,4.30
2023-01-02T08:18:36.936Z,4.70
2023-01-02T08:21:04.670Z,3.70
2023-01-02T08:23:31.626Z,4.80
2023-01-02T08:26:02.494Z,3.60
2023-01-02T08:28:29.187Z,3.27
2023-01-02T08:30:55.981Z,3.20
2023-01-02T08:33:22.636Z,3.47
2023-01-02T08:35:49.203Z,6.83
2023-01-02T08:38:15.815Z,3.20
2023-01-02T08:40:42.180Z,3.80
2023-01-02T08:43:09.091Z,5.07
2023-01-02T08:45:35.782Z,5.70
2023-01-02T08:48:20.805Z,4.50
2023-01-02T08:50:49.824Z,7.10
2023-01-02T08:53:16.314Z,4.87
2023-01-02T08:55:42.698Z,5.97
2023-01-02T08:58:09.128Z,5.90
2023-01-02T09:00:35.591Z,6.27
2023-01-02T09:03:02.168Z,3.53
2023-01-02T09:05:30.969Z,3.70
2023-01-02T09:07:58.389Z,4.67
2023-01-02T09:10:25.510Z,4.93
2023-01-02T09:12:52.054Z,3.40
2023-01-02T09:15:19.132Z,3.93
2023-01-02T09:17:45.728Z,7.20
2023-01-02T09:20:12.172Z,8.47
2023-01-02T09:22:38.688Z,5.70
2023-01-02T09:25:05.644Z,5.10
2023-01-02T09:27:32.119Z,3.13
2023-01-02T09:29:58.575Z,3.33
2023-01-02T09:32:24.975Z,3.40
2023-01-02T09:34:51.820Z,4.60
2023-01-02T09:37:18.269Z,4.17
2023-01-02T09:39:44.883Z,3.73
2023-01-02T09:42:15.558Z,4.07
2023-01-02T09:45:06.466Z,4.20
2023-01-02T09:47:35.634Z,4.17
2023-01-02T09:50:10.672Z,4.30
2023-01-02T09:52:41.427Z,4.20
2023-01-02T09:55:32.733Z,5.70
2023-01-02T09:58:04.889Z,7.27
2023-01-02T10:00:35.462Z,7.93
2023-01-02T10:03:30.677Z,6.97
2023-01-02T10:06:17.368Z,4.27
2023-01-02T10:08:55.040Z,3.17
2023-01-02T10:11:35.073Z,3.10
2023-01-02T10:14:27.655Z,2.90
2023-01-02T10:17:00.613Z,3.70
2023-01-02T10:19:38.272Z,2.37
2023-01-02T10:22:07.960Z,2.80
2023-01-02T10:24:41.976Z,3.37
2023-01-02T10:27:34.136Z,3.43
2023-01-02T10:30:06.909Z,3.20
2023-01-02T10:32:35.124Z,2.70
2023-01-02T10:35:07.474Z,2.73
2023-01-02T10:37:35.656Z,2.90
2023-01-02T10:40:02.187Z,2.83
2023-01-02T10:42:32.402Z,3.17
2023-01-02T10:44:59.279Z,4.00
2023-01-02T10:47:37.658Z,2.60
2023-01-02T10:50:14.455Z,2.50
2023-01-02T10:52:47.077Z,3.40
2023-01-02T10:55:13.536Z,2.73
2023-01-02T10:57:45.216Z,2.50
2023-01-02T11:00:20.176Z,2.57
2023-01-02T11:02:54.654Z,1.90
2023-01-02T11:05:28.876Z,2.47
2023-01-02T11:07:55.903Z,2.37
2023-01-02T11:10:27.843Z,2.10
2023-01-02T11:12:54.803Z,2.07
2023-01-02T11:15:34.800Z,2.60
2023-01-02T11:18:03.875Z,1.80
2023-01-02T11:20:33.458Z,2.03
2023-01-02T11:23:02.763Z,1.87
2023-01-02T11:25:36.825Z,2.20
2023-01-02T11:28:04.075Z,2.13
2023-01-02T11:30:43.991Z,1.73
2023-01-02T11:33:45.995Z,2.13
2023-01-02T11:36:12.342Z,2.40
2023-01-02T11:38:56.590Z,1.50
2023-01-02T11:41:45.865Z,1.30
2023-01-02T11:44:21.148Z,1.30
2023-01-02T11:46:48.551Z,1.60
2023-01-02T11:49:23.214Z,1.53
2023-01-02T11:51:57.800Z,1.80
2023-01-02T11:54:35.728Z,1.90
2023-01-02T11:57:03.226Z,2.50
2023-01-02T11:59:37.675Z,2.07
2023-01-02T12:02:19.193Z,2.10
2023-01-02T12:04:45.699Z,2.90
2023-01-02T12:07:27.068Z,3.93
2023-01-02T12:10:14.542Z,4.57
2023-01-02T12:12:54.058Z,4.40
2023-01-02T12:15:53.749Z,3.60
2023-01-02T12:18:51.040Z,2.93
2023-01-02T12:21:24.510Z,2.80
2023-01-02T12:24:05.934Z,2.97
2023-01-02T12:27:01.543Z,3.80
2023-01-02T12:29:46.677Z,3.67
2023-01-02T12:32:42.439Z,4.40
2023-01-02T12:35:48.907Z,3.20
2023-01-02T12:38:33.066Z,3.87
2023-01-02T12:41:29.399Z,4.37
2023-01-02T12:44:06.429Z,5.53
2023-01-02T12:46:51.727Z,5.33
2023-01-02T12:49:41.950Z,5.27
2023-01-02T12:52:08.455Z,4.73
2023-01-02T12:55:02.020Z,3.90
2023-01-02T12:57:37.450Z,3.13
2023-01-02T13:00:21.356Z,4.00
2023-01-02T13:03:08.458Z,4.63
2023-01-02T13:05:47.384Z,5.37
2023-01-02T13:08:19.164Z,4.33
2023-01-02T13:10:47.267Z,3.60
2023-01-02T13:13:14.759Z,2.27
2023-01-02T13:15:47.457Z,2.20
2023-01-02T13:18:18.872Z,2.40
2023-01-02T13:21:00.822Z,2.60
2023-01-02T13:23:36.326Z,2.83
2023-01-02T13:26:18.845Z,3.03
2023-01-02T13:29:06.771Z,2.87
2023-01-02T13:31:46.654Z,4.23
2023-01-02T13:34:22.444Z,3.30
2023-01-02T13:36:51.385Z,2.40
2023-01-02T13:39:41.902Z,1.60
2023-01-02T13:42:30.097Z,2.97
2023-01-02T13:44:59.977Z,2.90
2023-01-02T13:47:38.880Z,5.10
2023-01-02T13:50:17.237Z,3.73
2023-01-02T13:53:04.627Z,2.37
2023-01-02T13:55:35.631Z,4.10
2023-01-02T13:58:20.220Z,3.20
2023-01-02T14:00:55.987Z,3.40
2023-01-02T14:03:23.124Z,1.87
2023-01-02T14:05:58.894Z,1.40
2023-01-02T14:08:34.069Z,7.93
2023-01-02T14:11:02.034Z,3.43
2023-01-02T14:13:53.320Z,9.73
2023-01-02T14:16:22.741Z,9.13
2023-01-02T14:19:24.574Z,7.83
2023-01-02T14:22:15.451Z,4.00
2023-01-02T14:24:49.493Z,11.70
2023-01-02T14:27:15.934Z,5.80
2023-01-02T14:30:02.803Z,3.00
2023-01-02T14:32:39.421Z,1.70
2023-01-02T14:35:21.719Z,1.37
2023-01-02T14:37:50.903Z,1.57
2023-01-02T14:40:23.134Z,3.00
2023-01-02T14:43:14.391Z,1.53
2023-01-02T14:45:45.188Z,1.30
2023-01-02T14:48:16.794Z,1.47
2023-01-02T14:50:46.751Z,1.23
2023-01-02T14:53:23.186Z,1.30
2023-01-02T14:55:53.788Z,2.20
2023-01-02T14:58:47.909Z,2.90
2023-01-02T15:01:43.330Z,1.57
2023-01-02T15:04:20.170Z,1.10
2023-01-02T15:06:51.974Z,2.00
2023-01-02T15:09:26.968Z,2.00
2023-01-02T15:12:18.180Z,0.80
2023-01-02T15:14:44.938Z,1.10
2023-01-02T15:17:20.121Z,0.90
2023-01-02T15:19:47.609Z,0.73
2023-01-02T15:22:24.834Z,0.60
2023-01-02T15:24:53.504Z,0.80
2023-01-02T15:27:31.839Z,0.80
2023-01-02T15:30:17.161Z,0.90
2023-01-02T15:32:48.652Z,1.00
2023-01-02T15:35:24.513Z,0.83
2023-01-02T15:37:51.488Z,0.80
2023-01-02T15:40:27.933Z,1.10
2023-01-02T15:43:16.154Z,1.10
2023-01-02T15:45:46.697Z,0.80
2023-01-02T15:48:14.654Z,0.60
2023-01-02T15:50:42.309Z,0.90
2023-01-02T15:53:26.708Z,1.00
2023-01-02T15:55:53.101Z,0.77
2023-01-02T15:58:22.235Z,1.03
2023-01-02T16:00:48.695Z,1.27
2023-01-02T16:04:02.381Z,1.43
2023-01-02T16:06:30.533Z,0.90
2023-01-02T16:08:59.478Z,1.20
2023-01-02T16:11:26.925Z,1.30
2023-01-02T16:14:20.534Z,0.83
2023-01-02T16:17:14.762Z,1.13
2023-01-02T16:19:58.930Z,1.80
2023-01-02T16:22:28.997Z,1.03
2023-01-02T16:25:07.030Z,0.80
2023-01-02T16:27:40.863Z,1.00
2023-01-02T16:30:25.539Z,1.67
2023-01-02T16:32:52.197Z,1.50
2023-01-02T16:35:25.822Z,1.80
2023-01-02T16:37:55.002Z,1.17
2023-01-02T16:40:59.752Z,2.30
2023-01-02T16:43:11.864Z,3.07
2023-01-02T16:45:39.036Z,3.13
2023-01-02T16:48:07.567Z,3.10
2023-01-02T16:50:40.300Z,1.70
2023-01-02T16:53:07.451Z,1.80
2023-01-02T16:55:34.240Z,3.10
2023-01-02T16:58:00.739Z,1.43
2023-01-02T17:00:27.303Z,1.47
2023-01-02T17:02:53.718Z,1.03
2023-01-02T17:05:38.468Z,1.70
2023-01-02T17:08:05.601Z,1.10
2023-01-02T17:10:32.476Z,1.00
2023-01-02T17:12:59.062Z,0.87
2023-01-02T17:15:25.601Z,1.07
2023-01-02T17:17:52.002Z,0.80
2023-01-02T17:20:18.889Z,1.20
2023-01-02T17:22:45.535Z,1.20
2023-01-02T17:25:14.590Z,1.33
2023-01-02T17:27:42.759Z,1.13
2023-01-02T17:30:12.867Z,1.60
2023-01-02T17:32:40.930Z,1.30
2023-01-02T17:35:08.882Z,1.17
2023-01-02T17:37:35.731Z,1.40
2023-01-02T17:40:02.264Z,1.20
2023-01-02T17:42:29.009Z,1.27
2023-01-02T17:44:55.439Z,1.70
2023-01-02T17:47:57.787Z,1.37
2023-01-02T17:50:08.984Z,1.20
2023-01-02T17:52:35.876Z,1.90
2023-01-02T17:55:02.279Z,2.00
2023-01-02T17:57:28.714Z,1.53
2023-01-02T17:59:55.263Z,1.20
2023-01-02T18:02:22.410Z,1.33
2023-01-02T18:04:54.826Z,1.13
2023-01-02T18:07:21.614Z,1.53
2023-01-02T18:10:09.210Z,1.40
2023-01-02T18:12:36.229Z,1.30
2023-01-02T18:15:10.680Z,1.87
2023-01-02T18:17:37.115Z,1.43
2023-01-02T18:20:10.314Z,1.40
2023-01-02T18:22:37.621Z,1.40
2023-01-02T18:25:19.139Z,1.43
2023-01-02T18:27:46.691Z,1.20
2023-01-02T18:30:16.889Z,1.20
2023-01-02T18:32:43.727Z,0.90
2023-01-02T18:35:55.513Z,1.07
2023-01-02T18:38:29.170Z,1.10
2023-01-02T18:40:55.819Z,1.10
2023-01-02T18:43:28.443Z,1.40
2023-01-02T18:45:58.774Z,0.90
2023-01-02T18:48:25.610Z,1.10
2023-01-02T18:51:00.381Z,0.80
2023-01-02T18:53:31.228Z,0.80
2023-01-02T18:56:01.927Z,0.70
2023-01-02T18:58:43.482Z,0.70
2023-01-02T19:01:19.083Z,0.90
2023-01-02T19:03:47.948Z,1.10
2023-01-02T19:06:24.050Z,1.10
2023-01-02T19:08:51.016Z,1.07
2023-01-02T19:11:44.553Z,1.37
2023-01-02T19:14:17.442Z,0.97
2023-01-02T19:16:44.621Z,1.20
2023-01-02T19:19:14.941Z,1.10
2023-01-02T19:21:42.039Z,1.23
2023-01-02T19:24:18.754Z,1.30
2023-01-02T19:26:47.761Z,1.37
2023-01-02T19:29:19.015Z,1.37
2023-01-02T19:31:45.798Z,1.63
2023-01-02T19:34:27.362Z,2.07
2023-01-02T19:37:12.204Z,1.90
2023-01-02T19:39:42.285Z,1.97
2023-01-02T19:42:22.796Z,1.97
2023-01-02T19:45:04.941Z,2.00
2023-01-02T19:47:34.351Z,1.90
2023-01-02T19:50:01.828Z,2.20
2023-01-02T19:52:29.626Z,3.80
2023-01-02T19:54:56.518Z,3.40
2023-01-02T19:57:24.522Z,3.80
2023-01-02T19:59:52.857Z,3.97
2023-01-02T20:02:21.358Z,4.60
2023-01-02T20:04:50.165Z,4.27
2023-01-02T20:07:16.945Z,4.27
2023-01-02T20:09:43.392Z,3.90
2023-01-02T20:12:28.418Z,3.23
2023-01-02T20:14:54.778Z,2.57
2023-01-02T20:17:21.682Z,2.80
2023-01-02T20:19:48.074Z,3.07
2023-01-02T20:22:14.685Z,3.30
2023-01-02T20:24:41.095Z,3.60
2023-01-02T20:27:07.811Z,3.47
2023-01-02T20:29:34.243Z,4.47
2023-01-02T20:32:00.989Z,4.27
2023-01-02T20:34:27.423Z,3.07
2023-01-02T20:36:53.975Z,3.33
2023-01-02T20:39:20.441Z,4.03
2023-01-02T20:41:46.823Z,3.20
2023-01-02T20:44:14.076Z,4.33
2023-01-02T20:46:40.757Z,5.70
2023-01-02T20:49:07.777Z,7.67
2023-01-02T20:51:35.435Z,6.07
2023-01-02T20:54:02.726Z,6.50
2023-01-02T20:56:29.990Z,6.63
2023-01-02T20:58:57.084Z,4.63
2023-01-02T21:01:24.532Z,3.80
2023-01-02T21:03:51.237Z,2.40
2023-01-02T21:06:17.871Z,2.60
2023-01-02T21:08:44.637Z,1.43
2023-01-02T21:11:11.319Z,1.30
2023-01-02T21:13:37.963Z,1.00
2023-01-02T21:16:04.651Z,0.70
2023-01-02T21:18:34.043Z,0.90
2023-01-02T21:21:07.875Z,1.10
2023-01-02T21:23:36.705Z,0.80
2023-01-02T21:26:04.732Z,1.00
2023-01-02T21:28:31.850Z,0.77
2023-01-02T21:30:58.695Z,1.10
2023-01-02T21:33:27.592Z,1.37
2023-01-02T21:35:56.985Z,1.03
2023-01-02T21:38:24.304Z,0.70
2023-01-02T21:40:52.376Z,1.17
2023-01-02T21:43:20.083Z,0.90
2023-01-02T21:45:46.721Z,1.10
2023-01-02T21:48:13.121Z,0.90
2023-01-02T21:50:39.892Z,0.90
2023-01-02T21:53:06.270Z,0.90
2023-01-02T21:55:32.748Z,1.37
2023-01-02T21:58:15.222Z,0.70
2023-01-02T22:00:42.422Z,0.90
2023-01-02T22:03:09.433Z,1.00
2023-01-02T22:05:35.933Z,0.87
2023-01-02T22:08:02.420Z,0.80
2023-01-02T22:10:28.883Z,1.20
2023-01-02T22:12:55.286Z,1.07
2023-01-02T22:15:22.123Z,1.00
2023-01-02T22:17:48.797Z,0.70
2023-01-02T22:20:15.460Z,0.90
2023-01-02T22:22:41.844Z,0.70
2023-01-02T22:25:08.901Z,0.93
2023-01-02T22:27:35.868Z,1.17
2023-01-02T22:30:22.041Z,1.00
2023-01-02T22:32:49.815Z,0.80
2023-01-02T22:35:16.441Z,1.23
2023-01-02T22:37:42.831Z,1.80
2023-01-02T22:40:09.786Z,1.50
2023-01-02T22:43:10.448Z,1.90
2023-01-02T22:45:44.936Z,1.57
2023-01-02T22:48:33.874Z,1.30
2023-01-02T22:51:01.777Z,2.00
2023-01-02T22:53:31.973Z,2.97
2023-01-02T22:56:00.056Z,3.70
2023-01-02T22:58:26.746Z,3.80
2023-01-02T23:01:06.654Z,4.60
2023-01-02T23:03:41.481Z,3.83
2023-01-02T23:06:08.054Z,2.90
2023-01-02T23:08:34.570Z,1.90
2023-01-02T23:11:01.285Z,1.83
2023-01-02T23:13:27.723Z,1.43
2023-01-02T23:16:13.189Z,1.53
2023-01-02T23:18:58.626Z,1.57
2023-01-02T23:21:26.658Z,1.70
2023-01-02T23:23:53.543Z,1.50
2023-01-02T23:26:21.397Z,1.40
2023-01-02T23:31:39.036Z,1.33
2023-01-02T23:34:05.830Z,1.07
2023-01-02T23:36:32.533Z,1.00
2023-01-02T23:38:58.906Z,1.20
2023-01-02T23:41:25.315Z,1.20
2023-01-02T23:43:51.910Z,1.03
2023-01-02T23:46:18.818Z,1.10
2023-01-02T23:48:45.369Z,1.00
2023-01-02T23:51:11.832Z,1.00
2023-01-02T23:53:38.226Z,0.90
2023-01-02T23:56:10.715Z,1.10
2023-01-02T23:58:37.137Z,1.07
